createdAt,value
2022-12-03T07:16:02.315Z,20.48
2022-12-03T07:18:28.936Z,19.60
2022-12-03T07:21:02.775Z,24.85
2022-12-03T07:23:29.397Z,23.17
2022-12-03T07:25:56.030Z,24.83
2022-12-03T07:28:22.668Z,25.17
2022-12-03T07:30:51.519Z,24.05
2022-12-03T07:33:20.076Z,24.20
2022-12-03T07:35:57.627Z,24.45
2022-12-03T07:38:27.381Z,26.23
2022-12-03T07:40:53.970Z,25.50
2022-12-03T07:43:20.591Z,29.92
2022-12-03T07:45:47.232Z,28.17
2022-12-03T07:48:13.876Z,25.80
2022-12-03T07:50:40.514Z,22.13
2022-12-03T07:53:07.115Z,29.10
2022-12-03T07:55:33.718Z,26.65
2022-12-03T07:58:00.338Z,22.13
2022-12-03T08:00:27.048Z,26.45
2022-12-03T08:02:53.667Z,25.10
2022-12-03T08:05:20.292Z,25.10
2022-12-03T08:07:46.967Z,27.85
2022-12-03T08:10:13.643Z,23.65
2022-12-03T08:12:40.498Z,26.17
2022-12-03T08:15:17.966Z,24.83
2022-12-03T08:17:46.722Z,22.85
2022-12-03T08:20:19.806Z,25.17
2022-12-03T08:22:48.896Z,24.33
2022-12-03T08:25:28.762Z,23.58
2022-12-03T08:28:02.445Z,21.35
2022-12-03T08:30:29.168Z,22.75
2022-12-03T08:32:58.448Z,24.23
2022-12-03T08:35:30.145Z,22.95
2022-12-03T08:38:09.350Z,22.00
2022-12-03T08:40:40.722Z,22.35
2022-12-03T08:43:18.249Z,23.10
2022-12-03T08:45:45.203Z,23.30
2022-12-03T08:48:42.822Z,21.20
2022-12-03T08:51:24.358Z,24.77
2022-12-03T08:54:01.718Z,23.02
2022-12-03T08:56:36.474Z,24.63
2022-12-03T08:59:25.322Z,23.45
2022-12-03T09:01:53.482Z,24.02
2022-12-03T09:04:27.422Z,24.92
2022-12-03T09:06:55.160Z,21.08
2022-12-03T09:09:22.871Z,25.05
2022-12-03T09:11:53.125Z,21.20
2022-12-03T09:14:22.448Z,24.00
2022-12-03T09:16:51.930Z,22.67
2022-12-03T09:19:24.876Z,25.35
2022-12-03T09:21:54.435Z,23.13
2022-12-03T09:24:21.190Z,23.27
2022-12-03T09:26:52.486Z,23.35
2022-12-03T09:29:19.154Z,22.45
2022-12-03T09:31:47.173Z,24.70
2022-12-03T09:34:13.895Z,23.25
2022-12-03T09:36:42.975Z,22.77
2022-12-03T09:39:09.602Z,20.20
2022-12-03T09:41:46.099Z,23.17
2022-12-03T09:44:17.439Z,18.90
2022-12-03T09:46:45.935Z,20.48
2022-12-03T09:49:17.560Z,19.23
2022-12-03T09:51:44.971Z,18.58
2022-12-03T09:54:22.037Z,19.45
2022-12-03T09:56:52.851Z,21.80
2022-12-03T09:59:20.577Z,21.55
2022-12-03T10:01:47.699Z,20.60
2022-12-03T10:04:14.602Z,19.15
2022-12-03T10:06:45.814Z,20.95
2022-12-03T10:09:23.616Z,20.80
2022-12-03T10:11:50.279Z,18.85
2022-12-03T10:14:18.811Z,24.00
2022-12-03T10:16:46.102Z,22.88
2022-12-03T10:19:31.443Z,22.65
2022-12-03T10:21:58.207Z,20.77
2022-12-03T10:24:33.212Z,21.33
2022-12-03T10:27:02.311Z,22.52
2022-12-03T10:29:34.373Z,18.90
2022-12-03T10:32:07.412Z,19.88
2022-12-03T10:34:39.591Z,22.67
2022-12-03T10:37:19.374Z,21.23
2022-12-03T10:40:11.880Z,19.33
2022-12-03T10:42:40.758Z,18.63
2022-12-03T10:45:29.725Z,20.73
2022-12-03T10:48:14.193Z,19.80
2022-12-03T10:50:48.309Z,22.13
2022-12-03T10:53:15.252Z,16.98
2022-12-03T10:55:43.700Z,18.80
2022-12-03T10:58:23.374Z,18.77
2022-12-03T11:00:53.316Z,21.08
2022-12-03T11:03:25.941Z,20.15
2022-12-03T11:05:54.603Z,17.92
2022-12-03T11:08:24.430Z,19.17
2022-12-03T11:11:00.810Z,21.60
2022-12-03T11:13:33.395Z,23.45
2022-12-03T11:16:04.244Z,19.67
2022-12-03T11:18:37.018Z,19.10
2022-12-03T11:21:06.599Z,20.55
2022-12-03T11:23:45.115Z,22.05
2022-12-03T11:26:18.593Z,22.90
2022-12-03T11:28:45.974Z,19.35
2022-12-03T11:31:44.529Z,22.83
2022-12-03T11:34:20.307Z,22.75
2022-12-03T11:37:11.861Z,22.23
2022-12-03T11:39:50.997Z,18.67
2022-12-03T11:42:26.455Z,24.05
2022-12-03T11:45:05.205Z,21.95
2022-12-03T11:47:31.794Z,20.85
2022-12-03T11:49:58.793Z,22.42
2022-12-03T11:52:33.163Z,23.63
2022-12-03T11:55:13.823Z,21.95
2022-12-03T11:57:42.963Z,23.83
2022-12-03T12:00:17.644Z,22.15
2022-12-03T12:02:44.582Z,18.45
2022-12-03T12:05:19.056Z,21.60
2022-12-03T12:07:47.984Z,18.58
2022-12-03T12:10:40.527Z,17.60
2022-12-03T12:13:24.645Z,24.85
2022-12-03T12:15:51.583Z,20.38
2022-12-03T12:18:40.148Z,19.95
2022-12-03T12:21:41.946Z,19.58
2022-12-03T12:24:28.926Z,22.75
2022-12-03T12:26:56.635Z,21.95
2022-12-03T12:29:23.212Z,19.88
2022-12-03T12:31:53.948Z,22.55
2022-12-03T12:34:20.950Z,20.90
2022-12-03T12:36:47.544Z,21.52
2022-12-03T12:39:16.120Z,21.88
2022-12-03T12:41:47.497Z,19.10
2022-12-03T12:44:14.342Z,25.17
2022-12-03T12:46:48.472Z,23.83
2022-12-03T12:49:15.807Z,22.27
2022-12-03T12:51:47.244Z,25.75
2022-12-03T12:54:16.065Z,23.97
2022-12-03T12:56:49.840Z,24.33
2022-12-03T12:59:20.603Z,26.13
2022-12-03T13:01:49.176Z,23.55
2022-12-03T13:04:22.168Z,24.48
2022-12-03T13:06:55.345Z,26.70
2022-12-03T13:09:24.954Z,24.38
2022-12-03T13:11:55.582Z,28.85
2022-12-03T13:14:24.463Z,27.70
2022-12-03T13:16:52.726Z,30.48
2022-12-03T13:19:25.384Z,25.98
2022-12-03T13:21:54.912Z,28.17
2022-12-03T13:24:37.768Z,28.02
2022-12-03T13:27:21.663Z,24.50
2022-12-03T13:30:01.388Z,26.58
2022-12-03T13:32:33.652Z,27.10
2022-12-03T13:37:33.945Z,26.08
2022-12-03T13:40:17.219Z,27.85
2022-12-03T13:42:46.524Z,26.65
2022-12-03T13:45:15.212Z,31.00
2022-12-03T13:47:56.375Z,26.67
2022-12-03T13:50:35.823Z,25.35
2022-12-03T13:53:09.320Z,27.52
2022-12-03T13:55:39.448Z,26.58
2022-12-03T13:58:06.111Z,25.63
2022-12-03T14:00:32.708Z,24.90
2022-12-03T14:02:59.312Z,24.27
2022-12-03T14:05:25.952Z,25.77
2022-12-03T14:07:52.624Z,25.63
2022-12-03T14:10:19.248Z,29.42
2022-12-03T14:12:45.887Z,30.27
2022-12-03T14:15:12.520Z,27.80
2022-12-03T14:17:39.175Z,27.42
2022-12-03T14:20:06.610Z,28.08
2022-12-03T14:22:33.469Z,27.63
2022-12-03T14:25:00.042Z,28.10
2022-12-03T14:27:27.388Z,26.20
2022-12-03T14:29:54.412Z,28.92
2022-12-03T14:32:21.337Z,29.08
2022-12-03T14:34:48.363Z,29.55
2022-12-03T14:37:17.920Z,28.30
2022-12-03T14:39:44.553Z,28.58
2022-12-03T14:42:13.940Z,29.25
2022-12-03T14:44:47.656Z,29.90
2022-12-03T14:47:16.041Z,28.40
2022-12-03T14:49:42.710Z,30.63
2022-12-03T14:52:12.290Z,26.90
2022-12-03T14:54:42.332Z,28.15
2022-12-03T14:57:13.169Z,31.40
2022-12-03T14:59:43.941Z,25.92
2022-12-03T15:02:12.160Z,29.10
2022-12-03T15:04:39.884Z,30.00
2022-12-03T15:07:06.654Z,31.02
2022-12-03T15:09:33.399Z,36.80
2022-12-03T15:12:00.074Z,32.28
2022-12-03T15:14:27.152Z,32.65
2022-12-03T15:16:55.991Z,40.10
2022-12-03T15:19:22.740Z,38.53
2022-12-03T15:21:49.332Z,36.53
2022-12-03T15:24:15.996Z,32.25
2022-12-03T15:26:42.567Z,31.65
2022-12-03T15:29:09.196Z,31.45
2022-12-03T15:31:35.824Z,31.42
2022-12-03T15:34:06.224Z,31.67
2022-12-03T15:36:32.875Z,33.05
2022-12-03T15:38:59.479Z,29.15
2022-12-03T15:41:29.486Z,31.77
2022-12-03T15:43:58.329Z,31.45
2022-12-03T15:46:25.982Z,31.90
2022-12-03T15:48:53.001Z,30.88
2022-12-03T15:51:19.795Z,31.25
2022-12-03T15:53:46.433Z,35.38
2022-12-03T15:56:13.301Z,31.25
2022-12-03T15:58:42.926Z,28.75
2022-12-03T16:01:09.780Z,40.53
2022-12-03T16:03:36.670Z,33.90
2022-12-03T16:06:03.409Z,31.70
2022-12-03T16:08:31.205Z,34.58
2022-12-03T16:10:57.868Z,30.40
2022-12-03T16:13:24.653Z,32.60
2022-12-03T16:15:51.379Z,32.03
2022-12-03T16:18:18.031Z,30.77
2022-12-03T16:20:44.722Z,35.03
2022-12-03T16:23:11.419Z,32.55
2022-12-03T16:25:38.035Z,31.27
2022-12-03T16:28:06.107Z,33.15
2022-12-03T16:30:32.724Z,31.08
2022-12-03T16:32:59.374Z,33.13
2022-12-03T16:35:25.984Z,33.40
2022-12-03T16:37:52.595Z,35.65
2022-12-03T16:40:19.191Z,32.80
2022-12-03T16:42:45.851Z,32.70
2022-12-03T16:45:31.966Z,30.58
2022-12-03T16:47:59.028Z,31.80
2022-12-03T16:50:30.025Z,32.67
2022-12-03T16:52:57.593Z,24.63
2022-12-03T16:55:24.461Z,33.47
2022-12-03T16:57:51.071Z,35.80
2022-12-03T17:00:17.951Z,32.42
2022-12-03T17:02:44.684Z,33.35
2022-12-03T17:05:11.451Z,36.20
2022-12-03T17:07:38.223Z,32.15
2022-12-03T17:10:06.045Z,33.40
2022-12-03T17:12:48.269Z,31.08
2022-12-03T17:15:19.261Z,30.58
2022-12-03T17:17:46.045Z,34.13
2022-12-03T17:20:16.125Z,32.85
2022-12-03T17:22:45.243Z,31.33
2022-12-03T17:25:12.210Z,32.88
2022-12-03T17:27:44.824Z,30.92
2022-12-03T17:30:15.489Z,31.48
2022-12-03T17:32:42.228Z,34.53
2022-12-03T17:35:11.846Z,34.08
2022-12-03T17:37:39.611Z,34.22
2022-12-03T17:40:08.391Z,34.60
2022-12-03T17:42:34.986Z,34.58
2022-12-03T17:45:09.336Z,31.48
2022-12-03T17:47:38.096Z,35.97
2022-12-03T17:50:05.586Z,31.70
2022-12-03T17:52:36.444Z,30.40
2022-12-03T17:55:15.783Z,31.83
2022-12-03T17:57:48.144Z,28.83
2022-12-03T18:00:17.663Z,31.42
2022-12-03T18:02:44.269Z,31.90
2022-12-03T18:05:10.964Z,27.45
2022-12-03T18:07:37.664Z,28.77
2022-12-03T18:10:04.904Z,29.77
2022-12-03T18:12:31.567Z,29.33
2022-12-03T18:14:58.209Z,28.98
2022-12-03T18:17:24.813Z,31.30
2022-12-03T18:19:51.622Z,29.58
2022-12-03T18:22:20.896Z,31.00
2022-12-03T18:24:52.257Z,30.23
2022-12-03T18:27:20.329Z,26.57
2022-12-03T18:29:49.708Z,31.67
2022-12-03T18:32:28.308Z,32.35
2022-12-03T18:34:58.797Z,32.67
2022-12-03T18:37:31.222Z,32.60
2022-12-03T18:40:12.445Z,31.65
2022-12-03T18:42:40.444Z,33.53
2022-12-03T18:45:12.633Z,29.50
2022-12-03T18:47:39.338Z,31.83
2022-12-03T18:50:09.458Z,28.63
2022-12-03T18:52:36.342Z,28.73
2022-12-03T18:55:05.852Z,28.33
2022-12-03T18:57:32.473Z,31.13
2022-12-03T19:00:01.733Z,30.58
2022-12-03T19:05:17.711Z,28.58
2022-12-03T19:07:46.715Z,30.23
2022-12-03T19:10:15.987Z,29.70
2022-12-03T19:12:42.651Z,27.90
2022-12-03T19:15:14.984Z,27.25
2022-12-03T19:17:49.132Z,28.02
2022-12-03T19:20:15.733Z,24.60
2022-12-03T19:22:42.380Z,27.52
2022-12-03T19:25:09.192Z,27.30
2022-12-03T19:27:35.790Z,27.45
2022-12-03T19:30:05.246Z,28.25
2022-12-03T19:32:31.924Z,28.38
2022-12-03T19:34:58.798Z,29.05
2022-12-03T19:37:26.332Z,29.95
2022-12-03T19:39:55.386Z,29.63
2022-12-03T19:42:24.924Z,28.63
2022-12-03T19:44:51.585Z,29.70
2022-12-03T19:47:21.043Z,29.50
2022-12-03T19:49:50.049Z,30.83
2022-12-03T19:52:16.678Z,28.58
2022-12-03T19:54:43.399Z,30.98
2022-12-03T19:57:10.574Z,30.80
2022-12-03T19:59:42.449Z,28.75
2022-12-03T20:02:12.227Z,29.73
2022-12-03T20:04:38.942Z,29.65
2022-12-03T20:07:08.274Z,32.95
2022-12-03T20:09:34.922Z,29.13
2022-12-03T20:12:04.263Z,27.70
2022-12-03T20:14:30.971Z,32.10
2022-12-03T20:17:03.311Z,32.17
2022-12-03T20:19:33.379Z,29.75
2022-12-03T20:22:03.916Z,31.38
2022-12-03T20:24:32.742Z,29.65
2022-12-03T20:27:00.959Z,30.10
2022-12-03T20:29:30.879Z,27.90
2022-12-03T20:32:00.430Z,28.75
2022-12-03T20:34:27.152Z,29.77
2022-12-03T20:36:57.894Z,26.45
2022-12-03T20:39:27.058Z,28.40
2022-12-03T20:41:55.932Z,25.42
2022-12-03T20:44:24.517Z,29.35
2022-12-03T20:46:51.194Z,26.17
2022-12-03T20:49:17.907Z,26.33
2022-12-03T20:51:49.899Z,25.48
2022-12-03T20:54:16.543Z,27.98
2022-12-03T20:56:43.194Z,27.02
2022-12-03T20:59:15.728Z,25.40
2022-12-03T21:01:47.347Z,27.58
2022-12-03T21:04:14.368Z,27.33
2022-12-03T21:06:42.271Z,26.20
2022-12-03T21:09:12.436Z,25.25
2022-12-03T21:11:42.190Z,25.20
2022-12-03T21:14:12.625Z,25.02
2022-12-03T21:19:38.872Z,27.50
2022-12-03T21:22:07.494Z,27.15
2022-12-03T21:24:34.579Z,26.20
2022-12-03T21:27:02.279Z,30.05
2022-12-03T21:29:31.449Z,26.55
2022-12-03T21:32:00.580Z,29.05
2022-12-03T21:34:35.867Z,26.85
2022-12-03T21:37:07.210Z,26.85
2022-12-03T21:39:33.935Z,26.95
2022-12-03T21:42:18.836Z,32.80
2022-12-03T21:44:50.851Z,28.50
2022-12-03T21:47:17.536Z,31.88
2022-12-03T21:49:46.744Z,25.23
2022-12-03T21:52:13.430Z,27.63
2022-12-03T21:54:40.132Z,28.73
2022-12-03T21:57:06.766Z,30.13
2022-12-03T21:59:33.494Z,24.42
2022-12-03T22:02:02.611Z,26.13
2022-12-03T22:04:29.464Z,24.10
2022-12-03T22:06:56.125Z,24.50
2022-12-03T22:09:28.190Z,24.48
2022-12-03T22:11:56.746Z,28.42
2022-12-03T22:14:23.418Z,25.08
2022-12-03T22:16:52.510Z,24.05
2022-12-03T22:19:25.496Z,23.65
2022-12-03T22:21:52.559Z,29.10
2022-12-03T22:24:19.514Z,26.85
2022-12-03T22:26:47.401Z,25.08
2022-12-03T22:29:23.237Z,25.73
2022-12-03T22:31:52.207Z,24.35
2022-12-03T22:34:18.904Z,25.08
2022-12-03T22:36:45.494Z,26.88
2022-12-03T22:39:14.065Z,28.95
2022-12-03T22:41:48.178Z,24.25
2022-12-03T22:44:17.509Z,26.85
2022-12-03T22:46:45.389Z,26.40
2022-12-03T22:49:13.385Z,29.88
2022-12-03T22:51:40.041Z,31.25
2022-12-03T22:54:10.599Z,24.55
2022-12-03T22:56:38.901Z,24.88
2022-12-03T22:59:09.212Z,25.98
2022-12-03T23:01:42.967Z,25.30
2022-12-03T23:04:12.776Z,26.88
2022-12-03T23:06:42.732Z,22.80
2022-12-03T23:09:11.853Z,30.00
2022-12-03T23:11:41.047Z,28.42
2022-12-03T23:14:07.658Z,29.60
2022-12-03T23:16:39.912Z,25.27
2022-12-03T23:21:35.128Z,24.65
2022-12-03T23:24:04.295Z,27.35
2022-12-03T23:26:37.657Z,27.98
2022-12-03T23:29:08.299Z,25.42
2022-12-03T23:31:35.226Z,27.50
2022-12-03T23:34:02.511Z,28.98
2022-12-03T23:36:36.812Z,27.63
2022-12-03T23:39:06.931Z,27.17
2022-12-03T23:41:33.601Z,27.38
2022-12-03T23:44:00.219Z,29.23
2022-12-03T23:46:29.663Z,29.58
2022-12-03T23:48:59.616Z,26.48
2022-12-03T23:51:27.094Z,29.67
2022-12-03T23:53:56.643Z,28.02
2022-12-03T23:56:34.893Z,30.55
2022-12-03T23:59:03.530Z,29.23
